Terminal Aerodrome Forecast
Issued by NWS Greer, SC

Home | Current Version | Previous Version | Text Only | Print | Product List | Glossary On
Versions: 1 2 3 4 5 6 7 8 9 10 11 12 13 14 15 16 17 18 19 20 21 22
000
FTUS42 KGSP 262331
TAFCLT
TAF
KCLT 262331Z 2700/2724 14005KT P6SM SCT060 BKN250
     FM270700 16003KT P6SM FEW250
     FM271400 05004KT P6SM FEW250
     FM271600 10008G15KT P6SM SCT060 PROB30 2721/2724 4SM -TSRA
      BKN050CB=

USA.gov is the U.S. government's official web portal to all federal, state and local government web resources and services.